Ana Sayfa
METAR-TAF:

METAR-TAF

Havaalanları :

Ushuaia, Arjantin

Enlem: 54-48S, Boylam: 068-19W, yükseklik: 16 m

Güncel hava durumu gözlemi

Rapor saat 03:00 UTC de 13 dakika önce yapıldı.
Rüzgar kuzeybatıdan 8 kt
Sıcaklık -2°C
Nem 86%
Basınç 1016 hPa
Görüş mesafesi 10 km veya daha fazla
3500 ft yükseklikte az bulutlu

METAR: SAWH 240300Z 32008KT 9999 FEW035 M02/M04 Q1016

Saat: 00:13 (03:13 UTC)

Tahmin

Rapor saat 23:00 UTC de 4 saat ve 13 dakika önce yapıldı.
Ayın 24'si saat 00 UTC'den ayın 24'si saat 24 UTC'ye kadar geçerli Tahmin
Rüzgar değişken yönden 7 kt
Görüş mesafesi 10 km veya daha fazla
3000 ft yükseklikte parçalı bulutlu
4000 ft yükseklikte parçalı çok bulutlu
Dönüşüyor
ayın 24'si saat 08 UTC'den ayın 24'si saat 10 UTC'ye kadar
Rüzgar kuzey/kuzeybatıdan 15 kt
2000 ft yükseklikte parçalı çok bulutlu
3000 ft yükseklikte parçalı çok bulutlu

TAF: SAWH 232300Z 2400/2424 VRB07KT 9999 SCT030 BKN040 TX04/2419Z TNM04/2406Z BECMG 2408/2410 34015KT BKN020 BKN030

4.000'den fazla havaalanı için hava durumu gözlemleri ve tahminleri (METAR ve TAF raporları).

Kullanılabilir istasyonlar harita üzerinde sarı ve kırmızı noktalarla gösterilir.

İstasyonun adını görmek için fareyi noktanın üzerinde gezdirin.

Sonrasında hava gözlem ve tahminlerini görmek için tıklayın.

Haritayı değiştirmek için: yaklaştırmak için siyah artı işaretli yeşil düğmeye ve uzaklaştırmak için de eksi işaretli düğmeye hızla tıklayın; bitişik haritalar için yeşil okları kullanın.


METAR-TAF: